Weather at Taggarts Airstrip

Public forecast

Using degrees Celsius for public forecast. Weather courtesy of forecast.io.

Closest aviation weather report (METAR) to Taggarts Airstrip

Closest report is Casement Air Base, 23.1 nm (42.8 km) ESE. Retrieved 2022/07/01 17:00 UTC (13 minutes ago):

EIME 011700Z 20016KT 9999 FEW015 SCT048 BKN088 16/13 Q1010

Closest aviation forecast (TAF) to Taggarts Airstrip

Closest forecast is Dublin Airport, 27.9 nm (51.6 km) E. Retrieved 2022/07/01 12:13 UTC (5 hours ago):

TAF EIDW 011100Z 0112/0212 22011KT 9999 FEW018 SCT028 PROB30 TEMPO 0114/0120 21015G25KT PROB40 TEMPO 0117/0120 -SHRA BKN014 PROB30 TEMPO 0118/0120 SHRA FEW016CB BECMG 0119/0121 25010KT PROB30 TEMPO 0210/0212 SHRA FEW018CB